sensor_id;sensor_type;location;lat;lon;timestamp;temperature;humidity
69009;SHT31;56065;52.472;13.380;2023-02-28T00:00:13;4.19;69.58
69009;SHT31;56065;52.472;13.380;2023-02-28T00:02:43;4.14;69.52
69009;SHT31;56065;52.472;13.380;2023-02-28T00:05:10;3.99;69.92
69009;SHT31;56065;52.472;13.380;2023-02-28T00:07:36;3.98;69.82
69009;SHT31;56065;52.472;13.380;2023-02-28T00:10:02;3.90;70.21
69009;SHT31;56065;52.472;13.380;2023-02-28T00:12:28;3.94;70.18
69009;SHT31;56065;52.472;13.380;2023-02-28T00:14:53;3.91;70.33
69009;SHT31;56065;52.472;13.380;2023-02-28T00:17:19;3.93;70.25
69009;SHT31;56065;52.472;13.380;2023-02-28T00:19:50;3.90;70.63
69009;SHT31;56065;52.472;13.380;2023-02-28T00:22:17;3.91;70.63
69009;SHT31;56065;52.472;13.380;2023-02-28T00:24:42;3.91;70.66
69009;SHT31;56065;52.472;13.380;2023-02-28T00:27:07;3.94;70.54
69009;SHT31;56065;52.472;13.380;2023-02-28T00:29:33;3.93;70.57
69009;SHT31;56065;52.472;13.380;2023-02-28T00:31:58;3.88;70.83
69009;SHT31;56065;52.472;13.380;2023-02-28T00:34:24;3.90;70.74
69009;SHT31;56065;52.472;13.380;2023-02-28T00:36:49;3.93;70.78
69009;SHT31;56065;52.472;13.380;2023-02-28T00:39:15;3.88;70.79
69009;SHT31;56065;52.472;13.380;2023-02-28T00:41:40;3.94;70.79
69009;SHT31;56065;52.472;13.380;2023-02-28T00:44:06;3.97;70.87
69009;SHT31;56065;52.472;13.380;2023-02-28T00:46:31;3.98;70.82
69009;SHT31;56065;52.472;13.380;2023-02-28T00:48:56;4.01;70.93
69009;SHT31;56065;52.472;13.380;2023-02-28T00:51:22;3.99;70.79
69009;SHT31;56065;52.472;13.380;2023-02-28T00:53:47;3.97;70.83
69009;SHT31;56065;52.472;13.380;2023-02-28T00:56:12;3.95;70.74
69009;SHT31;56065;52.472;13.380;2023-02-28T00:58:39;3.93;70.76
69009;SHT31;56065;52.472;13.380;2023-02-28T01:01:05;3.86;70.87
69009;SHT31;56065;52.472;13.380;2023-02-28T01:03:30;3.81;71.08
69009;SHT31;56065;52.472;13.380;2023-02-28T01:05:56;3.81;71.11
69009;SHT31;56065;52.472;13.380;2023-02-28T01:08:21;3.77;71.43
69009;SHT31;56065;52.472;13.380;2023-02-28T01:10:47;3.74;71.36
69009;SHT31;56065;52.472;13.380;2023-02-28T01:13:13;3.74;71.18
69009;SHT31;56065;52.472;13.380;2023-02-28T01:15:45;3.71;71.59
69009;SHT31;56065;52.472;13.380;2023-02-28T01:18:11;3.69;71.62
69009;SHT31;56065;52.472;13.380;2023-02-28T01:20:37;3.62;72.03
69009;SHT31;56065;52.472;13.380;2023-02-28T01:23:03;3.62;71.79
69009;SHT31;56065;52.472;13.380;2023-02-28T01:25:28;3.60;72.43
69009;SHT31;56065;52.472;13.380;2023-02-28T01:27:54;3.57;71.84
69009;SHT31;56065;52.472;13.380;2023-02-28T01:30:19;3.56;71.85
69009;SHT31;56065;52.472;13.380;2023-02-28T01:32:44;3.49;72.20
69009;SHT31;56065;52.472;13.380;2023-02-28T01:35:10;3.52;72.26
69009;SHT31;56065;52.472;13.380;2023-02-28T01:37:35;3.44;72.38
69009;SHT31;56065;52.472;13.380;2023-02-28T01:40:01;3.40;72.32
69009;SHT31;56065;52.472;13.380;2023-02-28T01:42:26;3.35;71.86
69009;SHT31;56065;52.472;13.380;2023-02-28T01:44:57;3.22;72.32
69009;SHT31;56065;52.472;13.380;2023-02-28T01:47:45;3.13;72.64
69009;SHT31;56065;52.472;13.380;2023-02-28T01:50:18;3.04;72.95
69009;SHT31;56065;52.472;13.380;2023-02-28T01:52:45;2.95;73.21
69009;SHT31;56065;52.472;13.380;2023-02-28T01:55:12;2.91;72.71
69009;SHT31;56065;52.472;13.380;2023-02-28T01:57:40;2.81;72.73
69009;SHT31;56065;52.472;13.380;2023-02-28T02:00:10;2.75;73.07
69009;SHT31;56065;52.472;13.380;2023-02-28T02:02:38;2.62;73.59
69009;SHT31;56065;52.472;13.380;2023-02-28T02:05:08;2.56;74.02
69009;SHT31;56065;52.472;13.380;2023-02-28T02:07:38;2.48;74.16
69009;SHT31;56065;52.472;13.380;2023-02-28T02:18:19;2.32;74.71
69009;SHT31;56065;52.472;13.380;2023-02-28T02:24:03;2.13;74.69
69009;SHT31;56065;52.472;13.380;2023-02-28T02:29:41;1.96;74.58
69009;SHT31;56065;52.472;13.380;2023-02-28T02:40:20;1.59;76.02
69009;SHT31;56065;52.472;13.380;2023-02-28T02:43:04;1.55;76.39
69009;SHT31;56065;52.472;13.380;2023-02-28T02:45:53;1.50;76.73
69009;SHT31;56065;52.472;13.380;2023-02-28T02:48:25;1.47;76.13
69009;SHT31;56065;52.472;13.380;2023-02-28T02:50:54;1.45;76.36
69009;SHT31;56065;52.472;13.380;2023-02-28T02:53:33;1.38;76.34
69009;SHT31;56065;52.472;13.380;2023-02-28T02:56:02;1.33;76.86
69009;SHT31;56065;52.472;13.380;2023-02-28T02:58:32;1.27;76.79
69009;SHT31;56065;52.472;13.380;2023-02-28T03:01:01;1.26;76.56
69009;SHT31;56065;52.472;13.380;2023-02-28T03:03:28;1.23;76.79
69009;SHT31;56065;52.472;13.380;2023-02-28T03:06:00;1.17;77.11
69009;SHT31;56065;52.472;13.380;2023-02-28T03:08:26;1.16;77.05
69009;SHT31;56065;52.472;13.380;2023-02-28T03:10:56;1.13;78.14
69009;SHT31;56065;52.472;13.380;2023-02-28T03:13:36;1.14;77.57
69009;SHT31;56065;52.472;13.380;2023-02-28T03:24:24;1.33;77.49
69009;SHT31;56065;52.472;13.380;2023-02-28T03:26:58;1.31;77.76
69009;SHT31;56065;52.472;13.380;2023-02-28T03:29:33;1.31;77.60
69009;SHT31;56065;52.472;13.380;2023-02-28T03:32:23;1.30;77.65
69009;SHT31;56065;52.472;13.380;2023-02-28T03:35:08;1.26;77.68
69009;SHT31;56065;52.472;13.380;2023-02-28T03:37:37;1.20;77.68
69009;SHT31;56065;52.472;13.380;2023-02-28T03:40:09;1.20;77.82
69009;SHT31;56065;52.472;13.380;2023-02-28T03:42:39;1.22;77.59
69009;SHT31;56065;52.472;13.380;2023-02-28T03:45:17;1.22;78.02
69009;SHT31;56065;52.472;13.380;2023-02-28T03:47:53;1.20;78.17
69009;SHT31;56065;52.472;13.380;2023-02-28T03:50:26;1.14;77.86
69009;SHT31;56065;52.472;13.380;2023-02-28T03:53:14;1.12;78.04
69009;SHT31;56065;52.472;13.380;2023-02-28T03:55:45;1.04;78.18
69009;SHT31;56065;52.472;13.380;2023-02-28T03:58:19;1.01;77.97
69009;SHT31;56065;52.472;13.380;2023-02-28T04:00:48;0.97;77.83
69009;SHT31;56065;52.472;13.380;2023-02-28T04:03:14;0.92;78.36
69009;SHT31;56065;52.472;13.380;2023-02-28T04:05:49;0.90;78.53
69009;SHT31;56065;52.472;13.380;2023-02-28T04:08:15;0.86;78.51
69009;SHT31;56065;52.472;13.380;2023-02-28T04:10:41;0.89;78.53
69009;SHT31;56065;52.472;13.380;2023-02-28T04:13:08;0.83;79.11
69009;SHT31;56065;52.472;13.380;2023-02-28T04:15:34;0.84;78.82
69009;SHT31;56065;52.472;13.380;2023-02-28T04:17:59;0.84;78.68
69009;SHT31;56065;52.472;13.380;2023-02-28T04:20:24;0.87;78.67
69009;SHT31;56065;52.472;13.380;2023-02-28T04:22:50;0.83;78.69
69009;SHT31;56065;52.472;13.380;2023-02-28T04:25:15;0.86;78.78
69009;SHT31;56065;52.472;13.380;2023-02-28T04:27:40;0.86;78.47
69009;SHT31;56065;52.472;13.380;2023-02-28T04:30:06;0.84;78.64
69009;SHT31;56065;52.472;13.380;2023-02-28T04:32:32;0.82;78.70
69009;SHT31;56065;52.472;13.380;2023-02-28T04:34:57;0.82;78.77
69009;SHT31;56065;52.472;13.380;2023-02-28T04:37:22;0.77;79.11
69009;SHT31;56065;52.472;13.380;2023-02-28T04:39:52;0.73;79.08
69009;SHT31;56065;52.472;13.380;2023-02-28T04:42:18;0.70;79.14
69009;SHT31;56065;52.472;13.380;2023-02-28T04:44:43;0.70;79.37
69009;SHT31;56065;52.472;13.380;2023-02-28T04:47:08;0.65;79.27
69009;SHT31;56065;52.472;13.380;2023-02-28T04:49:34;0.61;79.47
69009;SHT31;56065;52.472;13.380;2023-02-28T04:51:59;0.56;79.45
69009;SHT31;56065;52.472;13.380;2023-02-28T04:54:25;0.49;79.76
69009;SHT31;56065;52.472;13.380;2023-02-28T04:56:50;0.48;79.83
69009;SHT31;56065;52.472;13.380;2023-02-28T04:59:15;0.42;80.03
69009;SHT31;56065;52.472;13.380;2023-02-28T05:01:45;0.41;79.76
69009;SHT31;56065;52.472;13.380;2023-02-28T05:04:11;0.35;80.08
69009;SHT31;56065;52.472;13.380;2023-02-28T05:06:36;0.35;79.86
69009;SHT31;56065;52.472;13.380;2023-02-28T05:09:02;0.28;80.14
69009;SHT31;56065;52.472;13.380;2023-02-28T05:11:33;0.25;80.19
69009;SHT31;56065;52.472;13.380;2023-02-28T05:14:05;0.21;80.28
69009;SHT31;56065;52.472;13.380;2023-02-28T05:16:31;0.21;80.04
69009;SHT31;56065;52.472;13.380;2023-02-28T05:18:56;0.18;80.57
69009;SHT31;56065;52.472;13.380;2023-02-28T05:21:39;0.18;81.13
69009;SHT31;56065;52.472;13.380;2023-02-28T05:24:07;0.19;80.49
69009;SHT31;56065;52.472;13.380;2023-02-28T05:26:37;0.22;80.28
69009;SHT31;56065;52.472;13.380;2023-02-28T05:29:03;0.22;80.42
69009;SHT31;56065;52.472;13.380;2023-02-28T05:31:28;0.25;80.36
69009;SHT31;56065;52.472;13.380;2023-02-28T05:33:54;0.26;80.48
69009;SHT31;56065;52.472;13.380;2023-02-28T05:36:20;0.25;80.54
69009;SHT31;56065;52.472;13.380;2023-02-28T05:38:49;0.25;80.50
69009;SHT31;56065;52.472;13.380;2023-02-28T05:41:15;0.21;80.60
69009;SHT31;56065;52.472;13.380;2023-02-28T05:43:41;0.21;80.42
69009;SHT31;56065;52.472;13.380;2023-02-28T05:46:09;0.21;80.39
69009;SHT31;56065;52.472;13.380;2023-02-28T05:48:35;0.19;80.71
69009;SHT31;56065;52.472;13.380;2023-02-28T05:51:01;0.19;80.42
69009;SHT31;56065;52.472;13.380;2023-02-28T05:53:28;0.18;80.61
69009;SHT31;56065;52.472;13.380;2023-02-28T05:55:53;0.19;80.64
69009;SHT31;56065;52.472;13.380;2023-02-28T05:58:19;0.17;80.59
69009;SHT31;56065;52.472;13.380;2023-02-28T06:00:44;0.18;80.88
69009;SHT31;56065;52.472;13.380;2023-02-28T06:03:10;0.15;80.92
69009;SHT31;56065;52.472;13.380;2023-02-28T06:05:36;0.15;80.97
69009;SHT31;56065;52.472;13.380;2023-02-28T06:08:01;0.17;80.90
69009;SHT31;56065;52.472;13.380;2023-02-28T06:10:26;0.19;80.77
69009;SHT31;56065;52.472;13.380;2023-02-28T06:12:52;0.18;80.86
69009;SHT31;56065;52.472;13.380;2023-02-28T06:15:17;0.21;81.01
69009;SHT31;56065;52.472;13.380;2023-02-28T06:17:43;0.25;80.78
69009;SHT31;56065;52.472;13.380;2023-02-28T06:20:10;0.29;80.63
69009;SHT31;56065;52.472;13.380;2023-02-28T06:22:38;0.40;80.34
69009;SHT31;56065;52.472;13.380;2023-02-28T06:25:04;0.59;80.53
69009;SHT31;56065;52.472;13.380;2023-02-28T06:27:31;1.24;80.16
69009;SHT31;56065;52.472;13.380;2023-02-28T06:29:57;1.76;78.46
69009;SHT31;56065;52.472;13.380;2023-02-28T06:32:22;2.48;77.40
69009;SHT31;56065;52.472;13.380;2023-02-28T06:34:47;3.60;75.64
69009;SHT31;56065;52.472;13.380;2023-02-28T06:37:13;4.56;72.06
69009;SHT31;56065;52.472;13.380;2023-02-28T06:39:38;5.14;70.15
69009;SHT31;56065;52.472;13.380;2023-02-28T06:42:04;5.31;68.81
69009;SHT31;56065;52.472;13.380;2023-02-28T06:44:29;4.98;68.93
69009;SHT31;56065;52.472;13.380;2023-02-28T06:47:01;4.53;69.51
69009;SHT31;56065;52.472;13.380;2023-02-28T06:49:29;4.15;70.42
69009;SHT31;56065;52.472;13.380;2023-02-28T06:51:54;3.91;71.03
69009;SHT31;56065;52.472;13.380;2023-02-28T06:54:19;3.81;71.60
69009;SHT31;56065;52.472;13.380;2023-02-28T06:56:45;3.97;71.80
69009;SHT31;56065;52.472;13.380;2023-02-28T06:59:11;4.53;71.28
69009;SHT31;56065;52.472;13.380;2023-02-28T07:01:37;4.93;70.19
69009;SHT31;56065;52.472;13.380;2023-02-28T07:04:05;5.07;69.35
69009;SHT31;56065;52.472;13.380;2023-02-28T07:06:30;5.08;68.84
69009;SHT31;56065;52.472;13.380;2023-02-28T07:08:56;5.14;68.45
69009;SHT31;56065;52.472;13.380;2023-02-28T07:11:23;5.26;68.33
69009;SHT31;56065;52.472;13.380;2023-02-28T07:13:51;5.27;68.02
69009;SHT31;56065;52.472;13.380;2023-02-28T07:16:16;5.48;67.62
69009;SHT31;56065;52.472;13.380;2023-02-28T07:18:41;5.83;66.99
69009;SHT31;56065;52.472;13.380;2023-02-28T07:21:09;6.33;66.12
69009;SHT31;56065;52.472;13.380;2023-02-28T07:23:35;6.99;65.42
69009;SHT31;56065;52.472;13.380;2023-02-28T07:26:03;7.64;63.58
69009;SHT31;56065;52.472;13.380;2023-02-28T07:28:29;8.22;62.71
69009;SHT31;56065;52.472;13.380;2023-02-28T07:30:54;9.30;60.84
69009;SHT31;56065;52.472;13.380;2023-02-28T07:33:20;10.44;57.90
69009;SHT31;56065;52.472;13.380;2023-02-28T07:35:48;11.50;55.36
69009;SHT31;56065;52.472;13.380;2023-02-28T07:38:14;12.53;52.60
69009;SHT31;56065;52.472;13.380;2023-02-28T07:40:40;13.71;51.40
69009;SHT31;56065;52.472;13.380;2023-02-28T07:43:05;14.50;48.68
69009;SHT31;56065;52.472;13.380;2023-02-28T07:45:31;15.08;46.08
69009;SHT31;56065;52.472;13.380;2023-02-28T07:47:59;15.73;45.26
69009;SHT31;56065;52.472;13.380;2023-02-28T07:50:25;16.47;44.50
69009;SHT31;56065;52.472;13.380;2023-02-28T07:52:50;16.64;43.52
69009;SHT31;56065;52.472;13.380;2023-02-28T07:55:15;16.49;42.17
69009;SHT31;56065;52.472;13.380;2023-02-28T07:57:42;15.90;43.23
69009;SHT31;56065;52.472;13.380;2023-02-28T08:00:10;14.53;44.80
69009;SHT31;56065;52.472;13.380;2023-02-28T08:02:36;13.24;45.87
69009;SHT31;56065;52.472;13.380;2023-02-28T08:05:02;12.43;46.69
69009;SHT31;56065;52.472;13.380;2023-02-28T08:07:27;12.06;47.65
69009;SHT31;56065;52.472;13.380;2023-02-28T08:09:53;12.43;46.99
69009;SHT31;56065;52.472;13.380;2023-02-28T08:12:18;12.56;45.55
69009;SHT31;56065;52.472;13.380;2023-02-28T08:14:43;12.66;46.52
69009;SHT31;56065;52.472;13.380;2023-02-28T08:17:10;13.38;45.39
69009;SHT31;56065;52.472;13.380;2023-02-28T08:19:35;14.09;43.06
69009;SHT31;56065;52.472;13.380;2023-02-28T08:22:00;14.83;43.49
69009;SHT31;56065;52.472;13.380;2023-02-28T08:24:26;15.93;41.63
69009;SHT31;56065;52.472;13.380;2023-02-28T08:26:51;16.99;38.86
69009;SHT31;56065;52.472;13.380;2023-02-28T08:29:16;18.42;39.11
69009;SHT31;56065;52.472;13.380;2023-02-28T08:31:42;19.56;37.43
69009;SHT31;56065;52.472;13.380;2023-02-28T08:34:09;19.96;33.99
69009;SHT31;56065;52.472;13.380;2023-02-28T08:36:36;20.58;33.79
69009;SHT31;56065;52.472;13.380;2023-02-28T08:39:02;20.79;32.47
69009;SHT31;56065;52.472;13.380;2023-02-28T08:41:27;20.81;32.43
69009;SHT31;56065;52.472;13.380;2023-02-28T08:43:53;20.99;30.74
69009;SHT31;56065;52.472;13.380;2023-02-28T08:46:19;20.85;31.06
69009;SHT31;56065;52.472;13.380;2023-02-28T08:48:44;20.69;31.58
69009;SHT31;56065;52.472;13.380;2023-02-28T08:51:13;21.30;31.29
69009;SHT31;56065;52.472;13.380;2023-02-28T08:53:39;21.30;31.25
69009;SHT31;56065;52.472;13.380;2023-02-28T08:56:11;21.80;29.70
69009;SHT31;56065;52.472;13.380;2023-02-28T08:58:36;21.19;28.39
69009;SHT31;56065;52.472;13.380;2023-02-28T09:01:11;21.78;29.90
69009;SHT31;56065;52.472;13.380;2023-02-28T09:03:37;21.97;29.65
69009;SHT31;56065;52.472;13.380;2023-02-28T09:06:03;22.44;29.67
69009;SHT31;56065;52.472;13.380;2023-02-28T09:08:30;22.63;29.13
69009;SHT31;56065;52.472;13.380;2023-02-28T09:10:57;22.21;27.86
69009;SHT31;56065;52.472;13.380;2023-02-28T09:13:24;22.75;29.07
69009;SHT31;56065;52.472;13.380;2023-02-28T09:15:50;23.02;28.46
69009;SHT31;56065;52.472;13.380;2023-02-28T09:18:16;23.35;28.40
69009;SHT31;56065;52.472;13.380;2023-02-28T09:20:41;23.89;28.64
69009;SHT31;56065;52.472;13.380;2023-02-28T09:23:08;24.50;26.66
69009;SHT31;56065;52.472;13.380;2023-02-28T09:25:34;24.05;26.82
69009;SHT31;56065;52.472;13.380;2023-02-28T09:28:00;23.72;27.11
69009;SHT31;56065;52.472;13.380;2023-02-28T09:30:26;24.12;27.81
69009;SHT31;56065;52.472;13.380;2023-02-28T09:32:52;24.39;26.36
69009;SHT31;56065;52.472;13.380;2023-02-28T09:35:19;24.12;26.88
69009;SHT31;56065;52.472;13.380;2023-02-28T09:37:46;24.15;26.31
69009;SHT31;56065;52.472;13.380;2023-02-28T09:40:12;24.46;26.84
69009;SHT31;56065;52.472;13.380;2023-02-28T09:42:40;24.70;26.13
69009;SHT31;56065;52.472;13.380;2023-02-28T09:45:16;24.27;26.34
69009;SHT31;56065;52.472;13.380;2023-02-28T09:47:46;24.10;26.67
69009;SHT31;56065;52.472;13.380;2023-02-28T09:50:36;24.23;25.61
69009;SHT31;56065;52.472;13.380;2023-02-28T09:53:15;24.94;26.19
69009;SHT31;56065;52.472;13.380;2023-02-28T09:55:45;24.81;25.49
69009;SHT31;56065;52.472;13.380;2023-02-28T09:58:41;24.64;26.47
69009;SHT31;56065;52.472;13.380;2023-02-28T10:01:21;24.59;26.07
69009;SHT31;56065;52.472;13.380;2023-02-28T10:03:59;24.36;25.83
69009;SHT31;56065;52.472;13.380;2023-02-28T10:06:29;23.84;25.25
69009;SHT31;56065;52.472;13.380;2023-02-28T10:09:05;24.08;26.82
69009;SHT31;56065;52.472;13.380;2023-02-28T10:11:35;23.57;26.31
69009;SHT31;56065;52.472;13.380;2023-02-28T10:14:33;23.23;25.90
69009;SHT31;56065;52.472;13.380;2023-02-28T10:17:03;22.67;27.72
69009;SHT31;56065;52.472;13.380;2023-02-28T10:24:50;23.58;27.04
69009;SHT31;56065;52.472;13.380;2023-02-28T10:27:24;23.75;26.76
69009;SHT31;56065;52.472;13.380;2023-02-28T10:30:00;23.51;26.46
69009;SHT31;56065;52.472;13.380;2023-02-28T10:32:30;24.19;26.63
69009;SHT31;56065;52.472;13.380;2023-02-28T10:35:16;24.52;25.83
69009;SHT31;56065;52.472;13.380;2023-02-28T10:37:44;24.04;26.73
69009;SHT31;56065;52.472;13.380;2023-02-28T10:43:03;23.41;26.49
69009;SHT31;56065;52.472;13.380;2023-02-28T10:45:30;22.55;26.69
69009;SHT31;56065;52.472;13.380;2023-02-28T10:50:30;20.57;27.85
69009;SHT31;56065;52.472;13.380;2023-02-28T10:53:07;20.58;28.53
69009;SHT31;56065;52.472;13.380;2023-02-28T10:55:33;20.84;28.95
69009;SHT31;56065;52.472;13.380;2023-02-28T10:57:59;21.42;29.06
69009;SHT31;56065;52.472;13.380;2023-02-28T11:00:25;21.95;28.74
69009;SHT31;56065;52.472;13.380;2023-02-28T11:02:56;22.66;28.62
69009;SHT31;56065;52.472;13.380;2023-02-28T11:05:31;22.77;27.22
69009;SHT31;56065;52.472;13.380;2023-02-28T11:10:30;21.26;28.23
69009;SHT31;56065;52.472;13.380;2023-02-28T11:12:57;21.57;28.26
69009;SHT31;56065;52.472;13.380;2023-02-28T11:15:28;21.74;27.33
69009;SHT31;56065;52.472;13.380;2023-02-28T11:18:01;21.54;27.35
69009;SHT31;56065;52.472;13.380;2023-02-28T11:20:30;21.15;28.31
69009;SHT31;56065;52.472;13.380;2023-02-28T11:22:57;20.86;28.25
69009;SHT31;56065;52.472;13.380;2023-02-28T11:25:30;19.93;28.87
69009;SHT31;56065;52.472;13.380;2023-02-28T11:27:58;19.96;28.81
69009;SHT31;56065;52.472;13.380;2023-02-28T11:30:33;19.82;28.09
69009;SHT31;56065;52.472;13.380;2023-02-28T11:32:59;19.45;28.91
69009;SHT31;56065;52.472;13.380;2023-02-28T11:35:33;19.17;29.43
69009;SHT31;56065;52.472;13.380;2023-02-28T11:38:00;18.83;29.62
69009;SHT31;56065;52.472;13.380;2023-02-28T11:40:35;18.98;29.99
69009;SHT31;56065;52.472;13.380;2023-02-28T11:43:19;19.08;29.44
69009;SHT31;56065;52.472;13.380;2023-02-28T11:46:12;19.34;29.17
69009;SHT31;56065;52.472;13.380;2023-02-28T11:51:56;19.92;29.82
69009;SHT31;56065;52.472;13.380;2023-02-28T11:57:40;20.89;28.94
69009;SHT31;56065;52.472;13.380;2023-02-28T12:06:09;21.36;28.15
69009;SHT31;56065;52.472;13.380;2023-02-28T12:11:31;21.97;28.60
69009;SHT31;56065;52.472;13.380;2023-02-28T12:14:14;21.49;27.76
69009;SHT31;56065;52.472;13.380;2023-02-28T12:16:53;21.77;28.79
69009;SHT31;56065;52.472;13.380;2023-02-28T12:19:34;21.50;28.46
69009;SHT31;56065;52.472;13.380;2023-02-28T12:27:49;22.53;28.34
69009;SHT31;56065;52.472;13.380;2023-02-28T12:30:27;22.48;27.93
69009;SHT31;56065;52.472;13.380;2023-02-28T12:33:03;22.93;27.83
69009;SHT31;56065;52.472;13.380;2023-02-28T12:35:36;23.27;28.27
69009;SHT31;56065;52.472;13.380;2023-02-28T12:38:12;23.41;28.36
69009;SHT31;56065;52.472;13.380;2023-02-28T12:40:42;23.18;26.92
69009;SHT31;56065;52.472;13.380;2023-02-28T12:43:09;23.00;28.32
69009;SHT31;56065;52.472;13.380;2023-02-28T12:45:50;22.69;27.25
69009;SHT31;56065;52.472;13.380;2023-02-28T12:48:25;22.12;27.75
69009;SHT31;56065;52.472;13.380;2023-02-28T12:50:52;22.51;27.96
69009;SHT31;56065;52.472;13.380;2023-02-28T12:53:31;22.51;27.23
69009;SHT31;56065;52.472;13.380;2023-02-28T12:56:32;21.84;27.66
69009;SHT31;56065;52.472;13.380;2023-02-28T12:59:02;21.61;28.34
69009;SHT31;56065;52.472;13.380;2023-02-28T13:01:44;21.80;28.60
69009;SHT31;56065;52.472;13.380;2023-02-28T13:09:57;21.64;29.17
69009;SHT31;56065;52.472;13.380;2023-02-28T13:12:23;20.89;28.63
69009;SHT31;56065;52.472;13.380;2023-02-28T13:14:50;20.18;29.09
69009;SHT31;56065;52.472;13.380;2023-02-28T13:17:20;19.90;29.12
69009;SHT31;56065;52.472;13.380;2023-02-28T13:24:53;19.35;29.61
69009;SHT31;56065;52.472;13.380;2023-02-28T13:29:49;19.26;29.77
69009;SHT31;56065;52.472;13.380;2023-02-28T13:39:55;17.53;31.65
69009;SHT31;56065;52.472;13.380;2023-02-28T13:42:47;17.15;32.52
69009;SHT31;56065;52.472;13.380;2023-02-28T13:45:28;17.00;32.99
69009;SHT31;56065;52.472;13.380;2023-02-28T13:47:59;16.75;33.31
69009;SHT31;56065;52.472;13.380;2023-02-28T14:06:35;15.19;34.28
69009;SHT31;56065;52.472;13.380;2023-02-28T14:11:38;15.32;34.12
69009;SHT31;56065;52.472;13.380;2023-02-28T14:14:06;15.36;33.48
69009;SHT31;56065;52.472;13.380;2023-02-28T14:16:39;14.81;34.04
69009;SHT31;56065;52.472;13.380;2023-02-28T14:19:13;14.65;34.82
69009;SHT31;56065;52.472;13.380;2023-02-28T14:27:29;14.95;34.80
69009;SHT31;56065;52.472;13.380;2023-02-28T14:30:12;14.83;34.83
69009;SHT31;56065;52.472;13.380;2023-02-28T14:35:46;15.11;35.09
69009;SHT31;56065;52.472;13.380;2023-02-28T14:38:28;15.34;35.75
69009;SHT31;56065;52.472;13.380;2023-02-28T14:40:56;15.56;36.48
69009;SHT31;56065;52.472;13.380;2023-02-28T14:43:25;15.89;35.15
69009;SHT31;56065;52.472;13.380;2023-02-28T14:45:54;16.01;35.27
69009;SHT31;56065;52.472;13.380;2023-02-28T14:48:21;15.80;33.75
69009;SHT31;56065;52.472;13.380;2023-02-28T14:50:53;15.39;34.68
69009;SHT31;56065;52.472;13.380;2023-02-28T14:53:21;14.89;34.75
69009;SHT31;56065;52.472;13.380;2023-02-28T14:55:48;14.54;34.78
69009;SHT31;56065;52.472;13.380;2023-02-28T15:00:51;14.19;36.44
69009;SHT31;56065;52.472;13.380;2023-02-28T15:06:00;14.20;36.46
69009;SHT31;56065;52.472;13.380;2023-02-28T15:08:27;14.08;36.08
69009;SHT31;56065;52.472;13.380;2023-02-28T15:11:20;14.01;36.85
69009;SHT31;56065;52.472;13.380;2023-02-28T15:13:52;13.72;36.36
69009;SHT31;56065;52.472;13.380;2023-02-28T15:16:22;13.25;36.48
69009;SHT31;56065;52.472;13.380;2023-02-28T15:18:59;12.86;36.81
69009;SHT31;56065;52.472;13.380;2023-02-28T15:21:35;12.42;37.62
69009;SHT31;56065;52.472;13.380;2023-02-28T15:24:07;12.11;38.14
69009;SHT31;56065;52.472;13.380;2023-02-28T15:26:39;11.80;38.22
69009;SHT31;56065;52.472;13.380;2023-02-28T15:29:07;11.64;39.43
69009;SHT31;56065;52.472;13.380;2023-02-28T15:31:41;11.43;39.55
69009;SHT31;56065;52.472;13.380;2023-02-28T15:34:20;11.46;39.92
69009;SHT31;56065;52.472;13.380;2023-02-28T15:36:47;11.50;40.38
69009;SHT31;56065;52.472;13.380;2023-02-28T15:39:22;11.42;39.88
69009;SHT31;56065;52.472;13.380;2023-02-28T15:41:47;11.39;40.17
69009;SHT31;56065;52.472;13.380;2023-02-28T15:47:05;11.01;40.28
69009;SHT31;56065;52.472;13.380;2023-02-28T15:49:39;10.85;39.98
69009;SHT31;56065;52.472;13.380;2023-02-28T15:52:05;10.75;40.27
69009;SHT31;56065;52.472;13.380;2023-02-28T15:54:33;10.60;40.45
69009;SHT31;56065;52.472;13.380;2023-02-28T15:57:20;10.36;40.81
69009;SHT31;56065;52.472;13.380;2023-02-28T15:59:54;9.99;41.65
69009;SHT31;56065;52.472;13.380;2023-02-28T16:07:41;9.56;42.71
69009;SHT31;56065;52.472;13.380;2023-02-28T16:10:08;9.46;42.73
69009;SHT31;56065;52.472;13.380;2023-02-28T16:12:36;9.44;42.63
69009;SHT31;56065;52.472;13.380;2023-02-28T16:15:07;9.39;42.80
69009;SHT31;56065;52.472;13.380;2023-02-28T16:17:35;9.34;43.00
69009;SHT31;56065;52.472;13.380;2023-02-28T16:20:01;9.22;43.06
69009;SHT31;56065;52.472;13.380;2023-02-28T16:22:30;9.03;43.41
69009;SHT31;56065;52.472;13.380;2023-02-28T16:24:56;8.83;43.79
69009;SHT31;56065;52.472;13.380;2023-02-28T16:27:27;8.72;44.03
69009;SHT31;56065;52.472;13.380;2023-02-28T16:29:55;8.49;43.94
69009;SHT31;56065;52.472;13.380;2023-02-28T16:32:20;8.22;44.71
69009;SHT31;56065;52.472;13.380;2023-02-28T16:34:45;7.94;44.77
69009;SHT31;56065;52.472;13.380;2023-02-28T16:37:16;7.74;46.23
69009;SHT31;56065;52.472;13.380;2023-02-28T16:39:43;7.56;46.01
69009;SHT31;56065;52.472;13.380;2023-02-28T16:42:23;7.33;46.84
69009;SHT31;56065;52.472;13.380;2023-02-28T16:44:51;7.16;46.95
69009;SHT31;56065;52.472;13.380;2023-02-28T16:47:17;6.99;47.14
69009;SHT31;56065;52.472;13.380;2023-02-28T16:49:42;6.84;47.92
69009;SHT31;56065;52.472;13.380;2023-02-28T16:52:09;6.71;48.18
69009;SHT31;56065;52.472;13.380;2023-02-28T16:54:35;6.58;48.31
69009;SHT31;56065;52.472;13.380;2023-02-28T16:57:00;6.45;48.77
69009;SHT31;56065;52.472;13.380;2023-02-28T16:59:27;6.36;49.16
69009;SHT31;56065;52.472;13.380;2023-02-28T17:01:53;6.19;49.54
69009;SHT31;56065;52.472;13.380;2023-02-28T17:04:19;6.16;49.92
69009;SHT31;56065;52.472;13.380;2023-02-28T17:06:44;6.09;49.72
69009;SHT31;56065;52.472;13.380;2023-02-28T17:09:16;6.00;49.59
69009;SHT31;56065;52.472;13.380;2023-02-28T17:11:42;5.89;50.32
69009;SHT31;56065;52.472;13.380;2023-02-28T17:14:07;5.85;49.95
69009;SHT31;56065;52.472;13.380;2023-02-28T17:16:35;5.73;50.27
69009;SHT31;56065;52.472;13.380;2023-02-28T17:19:03;5.68;50.85
69009;SHT31;56065;52.472;13.380;2023-02-28T17:21:31;5.62;50.90
69009;SHT31;56065;52.472;13.380;2023-02-28T17:23:57;5.51;50.98
69009;SHT31;56065;52.472;13.380;2023-02-28T17:26:23;5.48;51.08
69009;SHT31;56065;52.472;13.380;2023-02-28T17:28:54;5.42;51.90
69009;SHT31;56065;52.472;13.380;2023-02-28T17:31:21;5.39;52.23
69009;SHT31;56065;52.472;13.380;2023-02-28T17:33:47;5.32;51.81
69009;SHT31;56065;52.472;13.380;2023-02-28T17:36:20;5.30;52.22
69009;SHT31;56065;52.472;13.380;2023-02-28T17:38:47;5.28;51.94
69009;SHT31;56065;52.472;13.380;2023-02-28T17:41:13;5.24;52.07
69009;SHT31;56065;52.472;13.380;2023-02-28T17:43:39;5.23;52.22